sensor_id;sensor_type;location;lat;lon;timestamp;P1;durP1;ratioP1;P2;durP2;ratioP2
22904;SDS011;11619;50.140;8.518;2024-03-02T00:00:21;6.03;;;4.85;;
22904;SDS011;11619;50.140;8.518;2024-03-02T00:02:49;5.43;;;4.70;;
22904;SDS011;11619;50.140;8.518;2024-03-02T00:05:18;6.32;;;4.63;;
22904;SDS011;11619;50.140;8.518;2024-03-02T00:07:47;7.65;;;4.65;;
22904;SDS011;11619;50.140;8.518;2024-03-02T00:10:20;7.78;;;5.40;;
22904;SDS011;11619;50.140;8.518;2024-03-02T00:12:48;7.22;;;5.18;;
22904;SDS011;11619;50.140;8.518;2024-03-02T00:18:11;4.90;;;4.38;;
22904;SDS011;11619;50.140;8.518;2024-03-02T00:23:08;6.55;;;4.50;;
22904;SDS011;11619;50.140;8.518;2024-03-02T00:25:43;5.82;;;4.75;;
22904;SDS011;11619;50.140;8.518;2024-03-02T00:28:19;7.90;;;5.30;;
22904;SDS011;11619;50.140;8.518;2024-03-02T00:33:32;6.50;;;5.10;;
22904;SDS011;11619;50.140;8.518;2024-03-02T00:36:06;7.05;;;5.43;;
22904;SDS011;11619;50.140;8.518;2024-03-02T00:38:34;5.40;;;4.85;;
22904;SDS011;11619;50.140;8.518;2024-03-02T00:41:04;5.10;;;4.40;;
22904;SDS011;11619;50.140;8.518;2024-03-02T00:43:41;6.72;;;5.03;;
22904;SDS011;11619;50.140;8.518;2024-03-02T00:46:18;6.13;;;5.35;;
22904;SDS011;11619;50.140;8.518;2024-03-02T00:48:48;8.38;;;6.40;;
22904;SDS011;11619;50.140;8.518;2024-03-02T00:51:19;6.70;;;5.53;;
22904;SDS011;11619;50.140;8.518;2024-03-02T00:53:46;8.63;;;6.35;;
22904;SDS011;11619;50.140;8.518;2024-03-02T00:56:13;8.50;;;6.60;;
22904;SDS011;11619;50.140;8.518;2024-03-02T00:58:39;7.47;;;5.85;;
22904;SDS011;11619;50.140;8.518;2024-03-02T01:01:07;6.97;;;6.25;;
22904;SDS011;11619;50.140;8.518;2024-03-02T01:03:34;7.60;;;6.30;;
22904;SDS011;11619;50.140;8.518;2024-03-02T01:06:02;7.70;;;6.10;;
22904;SDS011;11619;50.140;8.518;2024-03-02T01:08:29;7.70;;;5.68;;
22904;SDS011;11619;50.140;8.518;2024-03-02T01:10:57;8.82;;;6.95;;
22904;SDS011;11619;50.140;8.518;2024-03-02T01:13:24;6.18;;;5.53;;
22904;SDS011;11619;50.140;8.518;2024-03-02T01:15:51;8.38;;;5.97;;
22904;SDS011;11619;50.140;8.518;2024-03-02T01:18:17;7.60;;;5.75;;
22904;SDS011;11619;50.140;8.518;2024-03-02T01:20:44;7.47;;;5.97;;
22904;SDS011;11619;50.140;8.518;2024-03-02T01:23:11;5.72;;;5.13;;
22904;SDS011;11619;50.140;8.518;2024-03-02T01:25:37;6.72;;;5.38;;
22904;SDS011;11619;50.140;8.518;2024-03-02T01:28:04;6.85;;;5.47;;
22904;SDS011;11619;50.140;8.518;2024-03-02T01:30:31;6.57;;;5.88;;
22904;SDS011;11619;50.140;8.518;2024-03-02T01:32:58;8.45;;;5.72;;
22904;SDS011;11619;50.140;8.518;2024-03-02T01:35:26;8.90;;;6.68;;
22904;SDS011;11619;50.140;8.518;2024-03-02T01:37:53;8.63;;;6.82;;
22904;SDS011;11619;50.140;8.518;2024-03-02T01:40:19;9.32;;;7.18;;
22904;SDS011;11619;50.140;8.518;2024-03-02T01:42:46;7.03;;;6.20;;
22904;SDS011;11619;50.140;8.518;2024-03-02T01:45:13;7.03;;;5.72;;
22904;SDS011;11619;50.140;8.518;2024-03-02T01:47:39;8.27;;;5.85;;
22904;SDS011;11619;50.140;8.518;2024-03-02T01:50:06;7.43;;;6.68;;
22904;SDS011;11619;50.140;8.518;2024-03-02T01:52:33;6.85;;;5.30;;
22904;SDS011;11619;50.140;8.518;2024-03-02T01:54:59;8.02;;;5.28;;
22904;SDS011;11619;50.140;8.518;2024-03-02T01:57:26;6.43;;;5.72;;
22904;SDS011;11619;50.140;8.518;2024-03-02T01:59:52;8.02;;;6.65;;
22904;SDS011;11619;50.140;8.518;2024-03-02T02:02:19;6.78;;;5.80;;
22904;SDS011;11619;50.140;8.518;2024-03-02T02:04:46;10.32;;;7.10;;
22904;SDS011;11619;50.140;8.518;2024-03-02T02:07:12;9.23;;;6.03;;
22904;SDS011;11619;50.140;8.518;2024-03-02T02:09:43;6.97;;;6.28;;
22904;SDS011;11619;50.140;8.518;2024-03-02T02:12:12;8.23;;;6.93;;
22904;SDS011;11619;50.140;8.518;2024-03-02T02:14:38;6.60;;;5.95;;
22904;SDS011;11619;50.140;8.518;2024-03-02T02:17:09;7.93;;;6.25;;
22904;SDS011;11619;50.140;8.518;2024-03-02T02:19:35;7.88;;;6.38;;
22904;SDS011;11619;50.140;8.518;2024-03-02T02:22:02;6.93;;;6.20;;
22904;SDS011;11619;50.140;8.518;2024-03-02T02:24:28;8.80;;;6.38;;
22904;SDS011;11619;50.140;8.518;2024-03-02T02:26:55;6.93;;;6.07;;
22904;SDS011;11619;50.140;8.518;2024-03-02T02:29:21;7.82;;;6.78;;
22904;SDS011;11619;50.140;8.518;2024-03-02T02:31:48;7.72;;;6.55;;
22904;SDS011;11619;50.140;8.518;2024-03-02T02:34:14;6.90;;;6.15;;
22904;SDS011;11619;50.140;8.518;2024-03-02T02:36:42;7.65;;;6.53;;
22904;SDS011;11619;50.140;8.518;2024-03-02T02:39:10;7.82;;;5.85;;
22904;SDS011;11619;50.140;8.518;2024-03-02T02:41:38;7.97;;;6.32;;
22904;SDS011;11619;50.140;8.518;2024-03-02T02:44:05;8.40;;;7.50;;
22904;SDS011;11619;50.140;8.518;2024-03-02T02:46:31;7.95;;;7.10;;
22904;SDS011;11619;50.140;8.518;2024-03-02T02:48:58;10.60;;;7.95;;
22904;SDS011;11619;50.140;8.518;2024-03-02T02:51:24;9.10;;;7.63;;
22904;SDS011;11619;50.140;8.518;2024-03-02T02:53:54;10.93;;;8.85;;
22904;SDS011;11619;50.140;8.518;2024-03-02T02:56:20;11.15;;;9.23;;
22904;SDS011;11619;50.140;8.518;2024-03-02T02:58:47;12.38;;;8.38;;
22904;SDS011;11619;50.140;8.518;2024-03-02T03:01:15;11.93;;;9.07;;
22904;SDS011;11619;50.140;8.518;2024-03-02T03:03:44;10.88;;;9.60;;
22904;SDS011;11619;50.140;8.518;2024-03-02T03:06:10;9.00;;;8.02;;
22904;SDS011;11619;50.140;8.518;2024-03-02T03:08:37;10.25;;;8.35;;
22904;SDS011;11619;50.140;8.518;2024-03-02T03:11:04;13.45;;;8.60;;
22904;SDS011;11619;50.140;8.518;2024-03-02T03:13:31;9.55;;;8.68;;
22904;SDS011;11619;50.140;8.518;2024-03-02T03:15:58;11.02;;;8.80;;
22904;SDS011;11619;50.140;8.518;2024-03-02T03:18:25;10.35;;;9.13;;
22904;SDS011;11619;50.140;8.518;2024-03-02T03:20:51;12.95;;;9.10;;
22904;SDS011;11619;50.140;8.518;2024-03-02T03:23:18;11.15;;;9.30;;
22904;SDS011;11619;50.140;8.518;2024-03-02T03:25:44;10.40;;;8.82;;
22904;SDS011;11619;50.140;8.518;2024-03-02T03:28:11;10.35;;;8.90;;
22904;SDS011;11619;50.140;8.518;2024-03-02T03:30:37;13.00;;;9.77;;
22904;SDS011;11619;50.140;8.518;2024-03-02T03:33:04;11.55;;;9.27;;
22904;SDS011;11619;50.140;8.518;2024-03-02T03:35:35;12.05;;;9.65;;
22904;SDS011;11619;50.140;8.518;2024-03-02T03:38:02;10.68;;;9.45;;
22904;SDS011;11619;50.140;8.518;2024-03-02T03:40:29;10.30;;;9.07;;
22904;SDS011;11619;50.140;8.518;2024-03-02T03:42:55;12.40;;;9.55;;
22904;SDS011;11619;50.140;8.518;2024-03-02T03:45:23;11.38;;;10.18;;
22904;SDS011;11619;50.140;8.518;2024-03-02T03:47:52;12.82;;;10.45;;
22904;SDS011;11619;50.140;8.518;2024-03-02T03:50:19;11.60;;;9.77;;
22904;SDS011;11619;50.140;8.518;2024-03-02T03:52:46;12.23;;;10.45;;
22904;SDS011;11619;50.140;8.518;2024-03-02T03:55:12;12.18;;;10.02;;
22904;SDS011;11619;50.140;8.518;2024-03-02T03:57:39;12.65;;;9.93;;
22904;SDS011;11619;50.140;8.518;2024-03-02T04:00:06;15.15;;;11.35;;
22904;SDS011;11619;50.140;8.518;2024-03-02T04:02:36;11.73;;;9.90;;
22904;SDS011;11619;50.140;8.518;2024-03-02T04:05:03;13.43;;;10.45;;
22904;SDS011;11619;50.140;8.518;2024-03-02T04:07:35;11.93;;;10.63;;
22904;SDS011;11619;50.140;8.518;2024-03-02T04:10:06;15.20;;;11.00;;
22904;SDS011;11619;50.140;8.518;2024-03-02T04:12:34;11.07;;;9.35;;
22904;SDS011;11619;50.140;8.518;2024-03-02T04:15:03;14.93;;;11.35;;
22904;SDS011;11619;50.140;8.518;2024-03-02T04:17:33;14.43;;;11.95;;
22904;SDS011;11619;50.140;8.518;2024-03-02T04:20:00;17.45;;;12.23;;
22904;SDS011;11619;50.140;8.518;2024-03-02T04:22:27;13.30;;;11.00;;
22904;SDS011;11619;50.140;8.518;2024-03-02T04:24:54;14.02;;;10.98;;
22904;SDS011;11619;50.140;8.518;2024-03-02T04:27:21;13.73;;;11.73;;
22904;SDS011;11619;50.140;8.518;2024-03-02T04:29:47;15.48;;;11.90;;
22904;SDS011;11619;50.140;8.518;2024-03-02T04:32:14;14.20;;;11.73;;
22904;SDS011;11619;50.140;8.518;2024-03-02T04:34:40;17.40;;;13.38;;
22904;SDS011;11619;50.140;8.518;2024-03-02T04:37:07;15.60;;;12.15;;
22904;SDS011;11619;50.140;8.518;2024-03-02T04:39:34;15.27;;;12.65;;
22904;SDS011;11619;50.140;8.518;2024-03-02T04:42:01;16.50;;;12.48;;
22904;SDS011;11619;50.140;8.518;2024-03-02T04:44:29;14.80;;;11.50;;
22904;SDS011;11619;50.140;8.518;2024-03-02T04:46:55;15.25;;;12.25;;
22904;SDS011;11619;50.140;8.518;2024-03-02T04:49:21;22.10;;;13.73;;
22904;SDS011;11619;50.140;8.518;2024-03-02T04:51:48;15.02;;;12.20;;
22904;SDS011;11619;50.140;8.518;2024-03-02T04:54:14;15.80;;;12.05;;
22904;SDS011;11619;50.140;8.518;2024-03-02T04:56:41;16.95;;;12.98;;
22904;SDS011;11619;50.140;8.518;2024-03-02T04:59:11;17.92;;;13.80;;
22904;SDS011;11619;50.140;8.518;2024-03-02T05:01:37;17.13;;;13.45;;
22904;SDS011;11619;50.140;8.518;2024-03-02T05:04:04;15.63;;;12.43;;
22904;SDS011;11619;50.140;8.518;2024-03-02T05:06:30;19.42;;;13.32;;
22904;SDS011;11619;50.140;8.518;2024-03-02T05:08:57;15.50;;;12.57;;
22904;SDS011;11619;50.140;8.518;2024-03-02T05:11:23;14.20;;;11.73;;
22904;SDS011;11619;50.140;8.518;2024-03-02T05:14:05;15.10;;;12.07;;
22904;SDS011;11619;50.140;8.518;2024-03-02T05:16:33;15.85;;;12.98;;
22904;SDS011;11619;50.140;8.518;2024-03-02T05:19:07;14.38;;;11.90;;
22904;SDS011;11619;50.140;8.518;2024-03-02T05:21:34;13.48;;;11.23;;
22904;SDS011;11619;50.140;8.518;2024-03-02T05:24:00;17.08;;;12.40;;
22904;SDS011;11619;50.140;8.518;2024-03-02T05:26:27;16.58;;;12.90;;
22904;SDS011;11619;50.140;8.518;2024-03-02T05:28:53;18.25;;;13.35;;
22904;SDS011;11619;50.140;8.518;2024-03-02T05:31:20;15.05;;;12.07;;
22904;SDS011;11619;50.140;8.518;2024-03-02T05:33:46;15.75;;;11.98;;
22904;SDS011;11619;50.140;8.518;2024-03-02T05:36:13;15.15;;;12.38;;
22904;SDS011;11619;50.140;8.518;2024-03-02T05:38:39;16.17;;;13.00;;
22904;SDS011;11619;50.140;8.518;2024-03-02T05:41:06;15.95;;;12.93;;
22904;SDS011;11619;50.140;8.518;2024-03-02T05:43:32;17.33;;;13.27;;
22904;SDS011;11619;50.140;8.518;2024-03-02T05:45:59;17.00;;;13.55;;
22904;SDS011;11619;50.140;8.518;2024-03-02T05:48:25;18.25;;;14.25;;
22904;SDS011;11619;50.140;8.518;2024-03-02T05:50:52;16.70;;;13.38;;
22904;SDS011;11619;50.140;8.518;2024-03-02T05:53:18;16.10;;;13.82;;
22904;SDS011;11619;50.140;8.518;2024-03-02T05:55:45;19.27;;;14.15;;
22904;SDS011;11619;50.140;8.518;2024-03-02T05:58:11;17.15;;;13.80;;
22904;SDS011;11619;50.140;8.518;2024-03-02T06:00:58;18.25;;;14.35;;
22904;SDS011;11619;50.140;8.518;2024-03-02T06:03:25;18.90;;;14.32;;
22904;SDS011;11619;50.140;8.518;2024-03-02T06:05:51;19.50;;;15.82;;
22904;SDS011;11619;50.140;8.518;2024-03-02T06:08:18;19.45;;;15.10;;
22904;SDS011;11619;50.140;8.518;2024-03-02T06:10:44;18.27;;;14.57;;
22904;SDS011;11619;50.140;8.518;2024-03-02T06:13:11;18.95;;;14.35;;
22904;SDS011;11619;50.140;8.518;2024-03-02T06:15:38;20.15;;;15.70;;
22904;SDS011;11619;50.140;8.518;2024-03-02T06:18:04;21.30;;;16.33;;
22904;SDS011;11619;50.140;8.518;2024-03-02T06:20:32;19.75;;;15.93;;
22904;SDS011;11619;50.140;8.518;2024-03-02T06:23:02;21.30;;;16.48;;
22904;SDS011;11619;50.140;8.518;2024-03-02T06:25:29;23.63;;;15.48;;
22904;SDS011;11619;50.140;8.518;2024-03-02T06:28:01;21.77;;;16.15;;
22904;SDS011;11619;50.140;8.518;2024-03-02T06:31:02;22.98;;;17.13;;
22904;SDS011;11619;50.140;8.518;2024-03-02T06:33:29;22.38;;;16.98;;
22904;SDS011;11619;50.140;8.518;2024-03-02T06:35:55;22.75;;;17.45;;
22904;SDS011;11619;50.140;8.518;2024-03-02T06:38:22;23.60;;;17.52;;
22904;SDS011;11619;50.140;8.518;2024-03-02T06:40:48;21.98;;;17.40;;
22904;SDS011;11619;50.140;8.518;2024-03-02T06:43:15;19.83;;;16.77;;
22904;SDS011;11619;50.140;8.518;2024-03-02T06:45:41;23.10;;;16.85;;
22904;SDS011;11619;50.140;8.518;2024-03-02T06:48:08;22.85;;;17.55;;
22904;SDS011;11619;50.140;8.518;2024-03-02T06:50:34;23.38;;;18.23;;
22904;SDS011;11619;50.140;8.518;2024-03-02T06:53:01;27.00;;;18.95;;
22904;SDS011;11619;50.140;8.518;2024-03-02T06:55:30;25.23;;;18.05;;
22904;SDS011;11619;50.140;8.518;2024-03-02T06:57:57;24.92;;;18.38;;
22904;SDS011;11619;50.140;8.518;2024-03-02T07:00:23;21.73;;;16.83;;
22904;SDS011;11619;50.140;8.518;2024-03-02T07:02:50;25.40;;;18.60;;
22904;SDS011;11619;50.140;8.518;2024-03-02T07:05:16;20.58;;;16.58;;
22904;SDS011;11619;50.140;8.518;2024-03-02T07:07:43;25.73;;;18.95;;
22904;SDS011;11619;50.140;8.518;2024-03-02T07:10:09;26.17;;;19.17;;
22904;SDS011;11619;50.140;8.518;2024-03-02T07:12:36;28.85;;;20.08;;
22904;SDS011;11619;50.140;8.518;2024-03-02T07:15:03;26.50;;;19.73;;
22904;SDS011;11619;50.140;8.518;2024-03-02T07:17:30;23.25;;;18.40;;
22904;SDS011;11619;50.140;8.518;2024-03-02T07:19:57;27.00;;;20.10;;
22904;SDS011;11619;50.140;8.518;2024-03-02T07:22:24;28.60;;;20.15;;
22904;SDS011;11619;50.140;8.518;2024-03-02T07:24:50;22.85;;;18.10;;
22904;SDS011;11619;50.140;8.518;2024-03-02T07:27:17;29.30;;;20.25;;
22904;SDS011;11619;50.140;8.518;2024-03-02T07:29:43;24.90;;;19.65;;
22904;SDS011;11619;50.140;8.518;2024-03-02T07:32:10;27.15;;;20.35;;
22904;SDS011;11619;50.140;8.518;2024-03-02T07:34:36;27.58;;;20.35;;
22904;SDS011;11619;50.140;8.518;2024-03-02T07:37:05;29.10;;;21.50;;
22904;SDS011;11619;50.140;8.518;2024-03-02T07:39:32;34.80;;;21.92;;
22904;SDS011;11619;50.140;8.518;2024-03-02T07:41:59;37.60;;;24.92;;
22904;SDS011;11619;50.140;8.518;2024-03-02T07:44:26;34.63;;;24.88;;
22904;SDS011;11619;50.140;8.518;2024-03-02T07:46:54;35.35;;;25.30;;
22904;SDS011;11619;50.140;8.518;2024-03-02T07:49:21;35.22;;;24.65;;
22904;SDS011;11619;50.140;8.518;2024-03-02T07:51:47;37.70;;;26.63;;
22904;SDS011;11619;50.140;8.518;2024-03-02T07:54:14;30.77;;;25.02;;
22904;SDS011;11619;50.140;8.518;2024-03-02T07:56:41;31.85;;;24.83;;
22904;SDS011;11619;50.140;8.518;2024-03-02T07:59:07;29.63;;;23.42;;
22904;SDS011;11619;50.140;8.518;2024-03-02T08:01:34;30.63;;;23.42;;
22904;SDS011;11619;50.140;8.518;2024-03-02T08:04:01;25.90;;;21.25;;
22904;SDS011;11619;50.140;8.518;2024-03-02T08:06:29;31.38;;;23.85;;
22904;SDS011;11619;50.140;8.518;2024-03-02T08:08:57;45.67;;;28.20;;
22904;SDS011;11619;50.140;8.518;2024-03-02T08:11:24;41.63;;;29.52;;
22904;SDS011;11619;50.140;8.518;2024-03-02T08:13:50;33.08;;;26.20;;
22904;SDS011;11619;50.140;8.518;2024-03-02T08:16:18;22.88;;;19.92;;
22904;SDS011;11619;50.140;8.518;2024-03-02T08:18:48;26.50;;;20.48;;
22904;SDS011;11619;50.140;8.518;2024-03-02T08:21:14;21.40;;;18.60;;
22904;SDS011;11619;50.140;8.518;2024-03-02T08:23:42;23.52;;;19.05;;
22904;SDS011;11619;50.140;8.518;2024-03-02T08:26:10;22.23;;;18.75;;
22904;SDS011;11619;50.140;8.518;2024-03-02T08:28:37;24.98;;;18.60;;
22904;SDS011;11619;50.140;8.518;2024-03-02T08:31:06;20.48;;;17.92;;
22904;SDS011;11619;50.140;8.518;2024-03-02T08:33:34;25.25;;;17.85;;
22904;SDS011;11619;50.140;8.518;2024-03-02T08:36:03;22.73;;;18.38;;
22904;SDS011;11619;50.140;8.518;2024-03-02T08:38:31;22.63;;;17.73;;
22904;SDS011;11619;50.140;8.518;2024-03-02T08:40:57;22.35;;;18.50;;
22904;SDS011;11619;50.140;8.518;2024-03-02T08:43:24;28.92;;;19.17;;
22904;SDS011;11619;50.140;8.518;2024-03-02T08:45:52;37.17;;;19.65;;
22904;SDS011;11619;50.140;8.518;2024-03-02T08:48:18;42.95;;;24.15;;
22904;SDS011;11619;50.140;8.518;2024-03-02T08:50:46;27.40;;;20.10;;
22904;SDS011;11619;50.140;8.518;2024-03-02T08:53:12;26.40;;;18.83;;
22904;SDS011;11619;50.140;8.518;2024-03-02T08:55:39;23.20;;;17.85;;
22904;SDS011;11619;50.140;8.518;2024-03-02T08:58:06;23.20;;;18.08;;
22904;SDS011;11619;50.140;8.518;2024-03-02T09:00:33;22.63;;;17.60;;
22904;SDS011;11619;50.140;8.518;2024-03-02T09:02:59;23.20;;;17.50;;
22904;SDS011;11619;50.140;8.518;2024-03-02T09:05:26;21.98;;;17.85;;
22904;SDS011;11619;50.140;8.518;2024-03-02T09:07:52;24.25;;;18.80;;
22904;SDS011;11619;50.140;8.518;2024-03-02T09:10:19;22.80;;;17.80;;
22904;SDS011;11619;50.140;8.518;2024-03-02T09:12:45;21.08;;;17.58;;
22904;SDS011;11619;50.140;8.518;2024-03-02T09:15:12;19.48;;;16.95;;
22904;SDS011;11619;50.140;8.518;2024-03-02T09:17:39;19.92;;;17.23;;
22904;SDS011;11619;50.140;8.518;2024-03-02T09:20:05;24.40;;;18.30;;
22904;SDS011;11619;50.140;8.518;2024-03-02T09:22:32;19.77;;;17.10;;
22904;SDS011;11619;50.140;8.518;2024-03-02T09:24:58;22.88;;;16.38;;
22904;SDS011;11619;50.140;8.518;2024-03-02T09:27:25;19.42;;;16.90;;
22904;SDS011;11619;50.140;8.518;2024-03-02T09:29:52;21.52;;;16.83;;
22904;SDS011;11619;50.140;8.518;2024-03-02T09:32:18;18.33;;;16.42;;
22904;SDS011;11619;50.140;8.518;2024-03-02T09:34:44;19.55;;;16.23;;
22904;SDS011;11619;50.140;8.518;2024-03-02T09:37:11;27.80;;;21.55;;
22904;SDS011;11619;50.140;8.518;2024-03-02T09:39:37;26.85;;;20.05;;
22904;SDS011;11619;50.140;8.518;2024-03-02T09:42:04;23.38;;;19.50;;
22904;SDS011;11619;50.140;8.518;2024-03-02T09:44:30;23.00;;;17.65;;
22904;SDS011;11619;50.140;8.518;2024-03-02T09:46:57;20.83;;;17.55;;
22904;SDS011;11619;50.140;8.518;2024-03-02T09:49:23;20.63;;;16.27;;
22904;SDS011;11619;50.140;8.518;2024-03-02T09:51:50;20.83;;;15.45;;
22904;SDS011;11619;50.140;8.518;2024-03-02T09:54:16;19.48;;;15.32;;
22904;SDS011;11619;50.140;8.518;2024-03-02T09:56:48;16.00;;;14.32;;
22904;SDS011;11619;50.140;8.518;2024-03-02T09:59:15;17.30;;;13.93;;
22904;SDS011;11619;50.140;8.518;2024-03-02T10:01:56;17.60;;;13.75;;
22904;SDS011;11619;50.140;8.518;2024-03-02T10:04:27;15.30;;;13.70;;
22904;SDS011;11619;50.140;8.518;2024-03-02T10:09:44;15.63;;;13.57;;
22904;SDS011;11619;50.140;8.518;2024-03-02T10:12:12;16.08;;;13.45;;
22904;SDS011;11619;50.140;8.518;2024-03-02T10:14:40;16.13;;;13.88;;
22904;SDS011;11619;50.140;8.518;2024-03-02T10:17:11;16.60;;;14.18;;
22904;SDS011;11619;50.140;8.518;2024-03-02T10:19:39;14.07;;;12.57;;
22904;SDS011;11619;50.140;8.518;2024-03-02T10:22:09;14.73;;;12.52;;
22904;SDS011;11619;50.140;8.518;2024-03-02T10:24:40;14.05;;;12.25;;
22904;SDS011;11619;50.140;8.518;2024-03-02T10:27:16;14.25;;;12.75;;
22904;SDS011;11619;50.140;8.518;2024-03-02T10:29:46;14.30;;;11.70;;
22904;SDS011;11619;50.140;8.518;2024-03-02T10:32:13;16.52;;;11.93;;
22904;SDS011;11619;50.140;8.518;2024-03-02T10:34:40;13.65;;;11.70;;
22904;SDS011;11619;50.140;8.518;2024-03-02T10:37:07;12.88;;;11.35;;
22904;SDS011;11619;50.140;8.518;2024-03-02T10:39:37;13.23;;;10.95;;
22904;SDS011;11619;50.140;8.518;2024-03-02T10:42:06;12.02;;;10.07;;
22904;SDS011;11619;50.140;8.518;2024-03-02T10:44:33;11.85;;;10.18;;
22904;SDS011;11619;50.140;8.518;2024-03-02T10:47:01;11.57;;;9.98;;
22904;SDS011;11619;50.140;8.518;2024-03-02T10:49:32;11.43;;;10.05;;
22904;SDS011;11619;50.140;8.518;2024-03-02T10:51:59;11.15;;;10.00;;
22904;SDS011;11619;50.140;8.518;2024-03-02T10:54:26;12.27;;;10.40;;
22904;SDS011;11619;50.140;8.518;2024-03-02T10:56:53;12.40;;;10.35;;
22904;SDS011;11619;50.140;8.518;2024-03-02T10:59:33;11.95;;;10.38;;
22904;SDS011;11619;50.140;8.518;2024-03-02T11:02:01;11.88;;;9.80;;
22904;SDS011;11619;50.140;8.518;2024-03-02T11:04:35;13.43;;;10.38;;
22904;SDS011;11619;50.140;8.518;2024-03-02T11:07:08;10.60;;;9.45;;
22904;SDS011;11619;50.140;8.518;2024-03-02T11:09:49;10.10;;;9.02;;
22904;SDS011;11619;50.140;8.518;2024-03-02T11:12:31;10.55;;;9.45;;
22904;SDS011;11619;50.140;8.518;2024-03-02T11:15:21;11.38;;;10.05;;
22904;SDS011;11619;50.140;8.518;2024-03-02T11:17:52;10.88;;;9.40;;
22904;SDS011;11619;50.140;8.518;2024-03-02T11:20:18;12.35;;;9.05;;
22904;SDS011;11619;50.140;8.518;2024-03-02T11:22:46;10.00;;;8.50;;
22904;SDS011;11619;50.140;8.518;2024-03-02T11:25:22;12.45;;;9.55;;
22904;SDS011;11619;50.140;8.518;2024-03-02T11:32:59;10.75;;;8.95;;
22904;SDS011;11619;50.140;8.518;2024-03-02T11:35:26;10.90;;;8.57;;
22904;SDS011;11619;50.140;8.518;2024-03-02T11:37:52;11.00;;;9.40;;
22904;SDS011;11619;50.140;8.518;2024-03-02T11:40:22;10.60;;;9.50;;
22904;SDS011;11619;50.140;8.518;2024-03-02T11:42:48;11.13;;;9.07;;
22904;SDS011;11619;50.140;8.518;2024-03-02T11:45:24;9.63;;;8.73;;
22904;SDS011;11619;50.140;8.518;2024-03-02T11:47:55;9.75;;;8.75;;
22904;SDS011;11619;50.140;8.518;2024-03-02T11:52:59;9.85;;;8.70;;
22904;SDS011;11619;50.140;8.518;2024-03-02T11:55:26;10.43;;;9.05;;
22904;SDS011;11619;50.140;8.518;2024-03-02T11:57:53;9.73;;;8.70;;
22904;SDS011;11619;50.140;8.518;2024-03-02T12:00:20;9.48;;;8.32;;
22904;SDS011;11619;50.140;8.518;2024-03-02T12:03:04;9.38;;;8.43;;
22904;SDS011;11619;50.140;8.518;2024-03-02T12:05:32;8.85;;;7.95;;
22904;SDS011;11619;50.140;8.518;2024-03-02T12:08:00;8.65;;;7.75;;
22904;SDS011;11619;50.140;8.518;2024-03-02T12:10:27;8.75;;;7.40;;
22904;SDS011;11619;50.140;8.518;2024-03-02T12:12:58;10.60;;;8.25;;
22904;SDS011;11619;50.140;8.518;2024-03-02T12:15:29;8.90;;;7.68;;
22904;SDS011;11619;50.140;8.518;2024-03-02T12:17:57;10.80;;;8.30;;
22904;SDS011;11619;50.140;8.518;2024-03-02T12:20:25;8.63;;;7.75;;
22904;SDS011;11619;50.140;8.518;2024-03-02T12:22:53;9.30;;;7.03;;
22904;SDS011;11619;50.140;8.518;2024-03-02T12:25:20;8.52;;;7.55;;
22904;SDS011;11619;50.140;8.518;2024-03-02T12:27:51;6.97;;;6.30;;
22904;SDS011;11619;50.140;8.518;2024-03-02T12:30:19;8.63;;;6.72;;
22904;SDS011;11619;50.140;8.518;2024-03-02T12:32:46;8.10;;;7.35;;
22904;SDS011;11619;50.140;8.518;2024-03-02T12:35:15;7.38;;;6.20;;
22904;SDS011;11619;50.140;8.518;2024-03-02T12:37:47;9.77;;;8.27;;
22904;SDS011;11619;50.140;8.518;2024-03-02T12:40:15;9.07;;;8.18;;
22904;SDS011;11619;50.140;8.518;2024-03-02T12:42:45;8.73;;;7.55;;
22904;SDS011;11619;50.140;8.518;2024-03-02T12:45:12;9.13;;;7.85;;
22904;SDS011;11619;50.140;8.518;2024-03-02T12:47:40;9.75;;;7.80;;
22904;SDS011;11619;50.140;8.518;2024-03-02T12:50:08;8.10;;;7.30;;
22904;SDS011;11619;50.140;8.518;2024-03-02T12:52:35;8.27;;;7.20;;
22904;SDS011;11619;50.140;8.518;2024-03-02T12:55:04;8.52;;;7.68;;
22904;SDS011;11619;50.140;8.518;2024-03-02T12:57:32;7.80;;;7.00;;
22904;SDS011;11619;50.140;8.518;2024-03-02T12:59:59;7.68;;;6.88;;
22904;SDS011;11619;50.140;8.518;2024-03-02T13:02:36;7.97;;;7.13;;
22904;SDS011;11619;50.140;8.518;2024-03-02T13:05:03;9.05;;;8.15;;
22904;SDS011;11619;50.140;8.518;2024-03-02T13:07:29;8.50;;;7.70;;
22904;SDS011;11619;50.140;8.518;2024-03-02T13:09:56;10.10;;;8.40;;
22904;SDS011;11619;50.140;8.518;2024-03-02T13:12:23;8.48;;;7.30;;
22904;SDS011;11619;50.140;8.518;2024-03-02T13:14:53;9.55;;;7.90;;
22904;SDS011;11619;50.140;8.518;2024-03-02T13:17:20;7.82;;;7.10;;
22904;SDS011;11619;50.140;8.518;2024-03-02T13:19:53;8.32;;;7.45;;
22904;SDS011;11619;50.140;8.518;2024-03-02T13:22:30;7.85;;;7.05;;
22904;SDS011;11619;50.140;8.518;2024-03-02T13:24:57;8.63;;;6.78;;
22904;SDS011;11619;50.140;8.518;2024-03-02T13:27:26;8.40;;;7.60;;
22904;SDS011;11619;50.140;8.518;2024-03-02T13:29:52;7.95;;;6.38;;
22904;SDS011;11619;50.140;8.518;2024-03-02T13:32:20;7.15;;;6.40;;
22904;SDS011;11619;50.140;8.518;2024-03-02T13:34:49;9.85;;;7.00;;
22904;SDS011;11619;50.140;8.518;2024-03-02T13:37:16;7.28;;;6.57;;
22904;SDS011;11619;50.140;8.518;2024-03-02T13:39:43;8.55;;;6.68;;
22904;SDS011;11619;50.140;8.518;2024-03-02T13:42:10;7.30;;;6.60;;
22904;SDS011;11619;50.140;8.518;2024-03-02T13:44:37;7.85;;;6.55;;
22904;SDS011;11619;50.140;8.518;2024-03-02T13:47:03;12.65;;;7.55;;
22904;SDS011;11619;50.140;8.518;2024-03-02T13:49:31;7.47;;;6.35;;
22904;SDS011;11619;50.140;8.518;2024-03-02T13:52:04;9.65;;;5.78;;
22904;SDS011;11619;50.140;8.518;2024-03-02T13:54:46;6.55;;;5.85;;
22904;SDS011;11619;50.140;8.518;2024-03-02T13:57:13;8.98;;;6.95;;
22904;SDS011;11619;50.140;8.518;2024-03-02T13:59:41;5.95;;;5.35;;
22904;SDS011;11619;50.140;8.518;2024-03-02T14:02:08;14.93;;;6.13;;
22904;SDS011;11619;50.140;8.518;2024-03-02T14:04:35;7.03;;;6.10;;
22904;SDS011;11619;50.140;8.518;2024-03-02T14:07:04;7.55;;;5.10;;
22904;SDS011;11619;50.140;8.518;2024-03-02T14:09:34;14.68;;;6.00;;
22904;SDS011;11619;50.140;8.518;2024-03-02T14:12:01;8.82;;;5.88;;
22904;SDS011;11619;50.140;8.518;2024-03-02T14:14:28;6.45;;;5.30;;
22904;SDS011;11619;50.140;8.518;2024-03-02T14:16:55;8.95;;;5.55;;
22904;SDS011;11619;50.140;8.518;2024-03-02T14:19:32;6.07;;;5.38;;
22904;SDS011;11619;50.140;8.518;2024-03-02T14:21:58;6.07;;;5.47;;
22904;SDS011;11619;50.140;8.518;2024-03-02T14:24:25;8.18;;;5.55;;
22904;SDS011;11619;50.140;8.518;2024-03-02T14:26:52;6.95;;;6.25;;
22904;SDS011;11619;50.140;8.518;2024-03-02T14:29:28;8.18;;;5.88;;
22904;SDS011;11619;50.140;8.518;2024-03-02T14:31:55;6.15;;;5.50;;
22904;SDS011;11619;50.140;8.518;2024-03-02T14:34:21;7.55;;;5.40;;
22904;SDS011;11619;50.140;8.518;2024-03-02T14:36:48;10.90;;;5.45;;
22904;SDS011;11619;50.140;8.518;2024-03-02T14:39:15;6.38;;;5.05;;
22904;SDS011;11619;50.140;8.518;2024-03-02T14:41:41;6.38;;;5.10;;
22904;SDS011;11619;50.140;8.518;2024-03-02T14:44:07;7.07;;;5.07;;
22904;SDS011;11619;50.140;8.518;2024-03-02T14:46:34;5.63;;;4.13;;
22904;SDS011;11619;50.140;8.518;2024-03-02T14:49:00;4.97;;;4.20;;
22904;SDS011;11619;50.140;8.518;2024-03-02T14:51:27;6.72;;;4.63;;
22904;SDS011;11619;50.140;8.518;2024-03-02T14:53:56;6.00;;;4.40;;
22904;SDS011;11619;50.140;8.518;2024-03-02T14:56:22;7.30;;;4.45;;